.
WxDataArchive / Data Records for 2012-04-17
2012-04-16 April 2012 2012-04-18

Data Records for Tuesday, 17 April 2012

Time	Temp	Chill	HIndex	Humid	Dewpt	 Wind 	HiWind	WindDir	Rain 	Barom 
-----	----	-----	------	-----	-----	------	------	-------	-----	----- 
00:00	48.9	48.9	48.9	66	38.0	0	0	---	0.00	30.180 
00:05	48.6	48.6	48.6	67	38.1	0	0	---	0.00	30.180 
00:10	48.3	48.3	48.3	68	38.2	0	0	---	0.00	30.180 
00:15	48.2	48.2	48.2	69	38.5	0	0	---	0.00	30.188 
00:20	48.0	48.0	48.0	69	38.3	0	1	270	0.00	30.188 
00:25	47.9	47.9	47.9	70	38.6	0	1	270	0.00	30.188 
00:30	47.7	47.7	47.7	70	38.4	0	0	---	0.00	30.199 
00:35	47.4	47.4	47.4	71	38.5	0	0	---	0.00	30.199 
00:40	47.3	47.3	47.3	71	38.4	0	0	---	0.00	30.199 
00:45	47.0	47.0	47.0	72	38.4	0	1	270	0.00	30.201 
00:50	47.0	47.0	47.0	72	38.4	0	0	---	0.00	30.201 
00:55	47.0	47.0	47.0	72	38.4	0	1	270	0.00	30.201 
01:00	47.0	47.0	47.0	72	38.4	0	1	270	0.00	30.203 
01:05	47.0	47.0	47.0	72	38.4	0	1	270	0.00	30.203 
01:10	47.0	47.0	47.0	72	38.4	0	1	270	0.00	30.203 
01:15	47.1	47.1	47.1	72	38.5	0	1	270	0.00	30.207 
01:20	47.3	47.3	47.3	72	38.7	0	1	270	0.00	30.207 
01:25	47.3	47.3	47.3	72	38.7	0	2	270	0.00	30.207 
01:30	47.3	47.3	47.3	71	38.4	1	3	270	0.00	30.211 
01:35	47.3	47.3	47.3	71	38.4	1	3	270	0.00	30.211 
01:40	47.3	47.3	47.3	71	38.4	1	2	270	0.00	30.211 
01:45	47.3	47.3	47.3	71	38.4	0	2	270	0.00	30.207 
01:50	47.1	47.1	47.1	71	38.2	1	3	270	0.00	30.207 
01:55	47.0	47.0	47.0	71	38.1	0	1	270	0.00	30.207 
02:00	46.8	46.8	46.8	71	37.9	0	2	270	0.00	30.207 
02:05	46.7	46.7	46.7	72	38.2	0	3	270	0.00	30.207 
02:10	46.5	46.5	46.5	72	38.0	1	3	270	0.00	30.207 
02:15	46.5	46.5	46.5	72	38.0	0	1	270	0.00	30.207 
02:20	46.5	46.5	46.5	72	38.0	0	2	270	0.00	30.207 
02:25	46.4	46.4	46.4	72	37.9	0	1	270	0.00	30.207 
02:30	46.2	46.2	46.2	73	38.0	0	1	270	0.00	30.208 
02:35	46.1	46.1	46.1	73	37.9	0	2	270	0.00	30.208 
02:40	46.0	46.0	46.0	73	37.8	0	1	270	0.00	30.208 
02:45	45.8	45.8	45.8	73	37.6	0	1	270	0.00	30.209 
02:50	45.8	45.8	45.8	73	37.6	0	1	270	0.00	30.209 
02:55	45.7	45.7	45.7	73	37.5	0	1	270	0.00	30.209 
03:00	45.5	45.5	45.5	74	37.7	0	1	270	0.00	30.206 
03:05	45.4	45.4	45.4	74	37.6	0	1	270	0.00	30.206 
03:10	45.2	45.2	45.2	74	37.4	0	1	270	0.00	30.206 
03:15	45.2	45.2	45.2	74	37.4	0	1	270	0.00	30.215 
03:20	44.9	44.9	44.9	75	37.5	0	0	---	0.00	30.215 
03:25	44.8	44.8	44.8	75	37.4	0	1	270	0.00	30.215 
03:30	44.6	44.6	44.6	75	37.2	0	0	---	0.00	30.217 
03:35	44.3	44.3	44.3	76	37.2	0	0	---	0.00	30.217 
03:40	44.1	44.1	44.1	76	37.0	0	0	---	0.00	30.217 
03:45	43.6	43.6	43.6	76	36.5	0	0	---	0.00	30.225 
03:50	43.3	43.3	43.3	77	36.6	0	0	---	0.00	30.225 
03:55	42.9	42.9	42.9	78	36.5	0	0	---	0.00	30.225 
04:00	42.6	42.6	42.6	79	36.6	0	0	---	0.00	30.238 
04:05	42.3	42.3	42.3	80	36.6	0	0	---	0.00	30.238 
04:10	42.1	42.1	42.1	80	36.4	0	0	---	0.00	30.238 
04:15	41.8	41.8	41.8	81	36.4	0	0	---	0.00	30.243 
04:20	41.5	41.5	41.5	81	36.1	0	0	---	0.00	30.243 
04:25	41.3	41.3	41.3	82	36.2	0	0	---	0.00	30.243 
04:30	41.2	41.2	41.2	83	36.4	0	0	---	0.00	30.244 
04:35	41.1	41.1	41.1	83	36.3	0	0	---	0.00	30.244 
04:40	40.9	40.9	40.9	83	36.1	0	0	---	0.00	30.244 
04:45	40.6	40.6	40.6	84	36.2	0	0	---	0.00	30.246 
04:50	40.5	40.5	40.5	85	36.4	0	0	---	0.00	30.246 
04:55	40.2	40.2	40.2	85	36.1	0	0	---	0.00	30.246 
05:00	39.9	39.9	39.9	85	35.8	0	0	---	0.00	30.246 
05:05	39.8	39.8	39.8	86	36.0	0	0	---	0.00	30.246 
05:10	39.8	39.8	39.8	86	36.0	0	0	---	0.00	30.246 
05:15	39.6	39.6	39.6	86	35.8	0	0	---	0.00	30.250 
05:20	39.5	39.5	39.5	86	35.7	0	0	---	0.00	30.250 
05:25	39.2	39.2	39.2	87	35.7	0	0	---	0.00	30.250 
05:30	39.1	39.1	39.1	87	35.6	0	0	---	0.00	30.258 
05:35	38.8	38.8	38.8	87	35.3	0	0	---	0.00	30.258 
05:40	38.6	38.6	38.6	87	35.1	0	0	---	0.00	30.258 
05:45	38.5	38.5	38.5	87	35.0	0	0	---	0.00	30.257 
05:50	38.3	38.3	38.3	87	34.8	0	0	---	0.00	30.257 
05:55	38.2	38.2	38.2	88	35.0	0	0	---	0.00	30.257 
06:00	38.0	38.0	38.0	88	34.8	0	0	---	0.00	30.262 
06:05	38.0	38.0	38.0	88	34.8	0	0	---	0.00	30.262 
06:10	38.0	38.0	38.0	88	34.8	0	0	---	0.00	30.262 
06:15	37.9	37.9	37.9	88	34.7	0	0	---	0.00	30.277 
06:20	37.8	37.8	37.8	89	34.9	0	0	---	0.00	30.277 
06:25	37.6	37.6	37.6	89	34.7	0	0	---	0.00	30.277 
06:30	37.5	37.5	37.5	89	34.6	0	0	---	0.00	30.282 
06:35	37.3	37.3	37.3	89	34.4	0	0	---	0.00	30.282 
06:40	37.2	37.2	37.2	89	34.3	0	0	---	0.00	30.282 
06:45	37.2	37.2	37.2	90	34.5	0	0	---	0.00	30.287 
06:50	37.0	37.0	37.0	90	34.3	0	0	---	0.00	30.287 
06:55	37.0	37.0	37.0	90	34.3	0	0	---	0.00	30.287 
07:00	36.9	36.9	36.9	90	34.2	0	0	---	0.00	30.293 
07:05	36.8	36.8	36.8	90	34.1	0	0	---	0.00	30.293 
07:10	36.6	36.6	36.6	90	33.9	0	0	---	0.00	30.293 
07:15	36.6	36.6	36.6	90	33.9	0	0	---	0.00	30.297 
07:20	36.6	36.6	36.6	90	33.9	0	0	---	0.00	30.297 
07:25	36.6	36.6	36.6	91	34.2	0	0	---	0.00	30.297 
07:30	36.8	36.8	36.8	91	34.4	0	0	---	0.00	30.308 
07:35	37.0	37.0	37.0	91	34.6	0	0	---	0.00	30.308 
07:40	37.2	37.2	37.2	91	34.8	0	0	---	0.00	30.308 
07:45	37.5	37.5	37.5	92	35.4	0	0	---	0.00	30.313 
07:50	37.8	37.8	37.8	92	35.7	0	0	---	0.00	30.313 
07:55	38.2	38.2	38.2	92	36.1	0	0	---	0.00	30.313 
08:00	38.6	38.6	38.6	92	36.5	0	0	---	0.00	30.318 
08:05	39.3	39.3	39.3	92	37.2	0	0	---	0.00	30.318 
08:10	40.3	40.3	40.3	93	38.4	0	0	---	0.00	30.318 
08:15	41.3	41.3	41.3	93	39.4	0	0	---	0.00	30.313 
08:20	42.1	42.1	42.1	92	39.9	0	0	---	0.00	30.313 
08:25	42.8	42.8	42.8	92	40.6	0	1	270	0.00	30.313 
08:30	43.5	43.5	43.5	90	40.8	0	2	270	0.00	30.322 
08:35	44.2	44.2	44.2	88	40.9	0	1	270	0.00	30.322 
08:40	44.6	44.6	44.6	84	40.1	0	2	270	0.00	30.322 
08:45	45.1	45.1	45.1	81	39.6	0	1	338	0.00	30.322 
08:50	45.4	45.4	45.4	79	39.3	0	2	338	0.00	30.322 
08:55	45.8	45.8	45.8	78	39.3	0	1	338	0.00	30.322 
09:00	46.1	46.1	46.1	76	39.0	0	2	338	0.00	30.328 
09:05	46.2	46.2	46.2	76	39.1	0	1	338	0.00	30.328 
09:10	46.5	46.5	46.5	75	39.0	0	1	338	0.00	30.328 
09:15	46.7	46.7	46.7	75	39.2	0	2	338	0.00	30.338 
09:20	47.0	47.0	47.0	74	39.1	0	1	338	0.00	30.338 
09:25	47.3	47.3	47.3	73	39.1	0	1	338	0.00	30.338 
09:30	47.4	47.4	47.4	71	38.5	0	3	338	0.00	30.342 
09:35	47.7	47.7	47.7	69	38.0	0	3	338	0.00	30.342 
09:40	48.0	48.0	48.0	69	38.3	0	1	338	0.00	30.342 
09:45	48.3	48.3	48.3	67	37.9	0	1	338	0.00	30.344 
09:50	48.6	48.6	48.6	68	38.5	0	2	338	0.00	30.344 
09:55	48.8	48.8	48.8	67	38.3	0	2	338	0.00	30.344 
10:00	49.2	49.2	49.2	66	38.3	0	3	338	0.00	30.347 
10:05	49.8	49.8	49.8	67	39.3	0	1	338	0.00	30.347 
10:10	50.2	50.2	50.2	65	38.9	0	1	338	0.00	30.347 
10:15	50.4	50.4	50.4	64	38.7	0	1	338	0.00	30.342 
10:20	50.8	50.8	50.8	64	39.1	0	1	338	0.00	30.342 
10:25	51.1	51.1	51.1	63	38.9	0	1	338	0.00	30.342 
10:30	51.6	51.6	51.6	64	39.8	0	1	338	0.00	30.339 
10:35	52.0	52.0	52.0	63	39.8	0	2	315	0.00	30.339 
10:40	52.6	52.6	52.6	60	39.1	0	2	338	0.00	30.339 
10:45	53.1	53.1	53.1	60	39.6	0	1	338	0.00	30.345 
10:50	53.1	53.1	53.1	59	39.2	0	2	338	0.00	30.345 
10:55	53.3	53.3	53.3	61	40.2	1	4	90	0.00	30.345 
11:00	53.5	53.5	53.5	62	40.8	1	4	90	0.00	30.348 
11:05	53.6	53.6	53.6	58	39.2	0	2	90	0.00	30.348 
11:10	53.6	53.6	53.6	58	39.2	1	2	90	0.00	30.348 
11:15	53.6	53.6	53.6	57	38.7	0	2	90	0.00	30.351 
11:20	53.6	53.6	53.6	56	38.3	0	3	90	0.00	30.351 
11:25	54.2	54.2	54.2	56	38.8	0	2	90	0.00	30.351 
11:30	54.5	54.5	54.5	54	38.2	0	2	90	0.00	30.350 
11:35	54.7	54.7	54.7	56	39.3	0	1	90	0.00	30.350 
11:40	54.8	54.8	54.8	54	38.5	0	2	90	0.00	30.350 
11:45	55.3	55.3	55.3	52	38.0	1	3	90	0.00	30.349 
11:50	55.9	55.9	55.9	53	39.0	1	5	90	0.00	30.349 
11:55	56.2	56.2	56.2	52	38.8	1	3	90	0.00	30.349 
12:00	56.5	56.5	56.5	50	38.1	0	2	90	0.00	30.350 
12:05	56.7	56.7	56.7	52	39.3	1	2	90	0.00	30.350 
12:10	56.7	56.7	56.7	52	39.3	0	2	90	0.00	30.350 
12:15	56.2	56.2	56.2	50	37.8	0	2	90	0.00	30.354 
12:20	55.9	55.9	55.9	52	38.5	0	2	90	0.00	30.354 
12:25	55.9	55.9	55.9	52	38.5	0	2	90	0.00	30.354 
12:30	56.2	56.2	56.2	51	38.3	0	2	90	0.00	30.352 
12:35	56.7	56.7	56.7	51	38.8	0	1	90	0.00	30.352 
12:40	56.7	56.7	56.7	50	38.3	0	2	90	0.00	30.352 
12:45	56.9	56.9	56.9	50	38.5	0	2	90	0.00	30.343 
12:50	57.0	57.0	57.0	50	38.5	0	1	90	0.00	30.343 
12:55	57.5	57.5	57.5	48	38.0	2	4	292	0.00	30.343 
13:00	57.0	57.0	57.0	49	38.0	1	5	270	0.00	30.348 
13:05	57.0	57.0	57.0	48	37.5	1	3	270	0.00	30.348 
13:10	56.9	56.9	56.9	50	38.5	1	4	270	0.00	30.348 
13:15	57.2	57.2	57.2	48	37.7	1	3	248	0.00	30.343 
13:20	57.0	57.0	57.0	49	38.0	1	3	270	0.00	30.343 
13:25	56.9	56.9	56.9	51	39.0	1	2	315	0.00	30.343 
13:30	57.2	57.2	57.2	50	38.7	1	4	315	0.00	30.343 
13:35	57.0	57.0	57.0	48	37.5	1	4	225	0.00	30.343 
13:40	56.9	56.9	56.9	49	37.9	1	3	315	0.00	30.343 
13:45	57.0	57.0	57.0	49	38.0	1	3	248	0.00	30.337 
13:50	57.0	57.0	57.0	50	38.5	1	4	248	0.00	30.337 
13:55	57.2	57.2	57.2	50	38.7	0	2	248	0.00	30.337 
14:00	57.6	57.6	57.6	51	39.6	1	3	248	0.00	30.336 
14:05	57.8	57.8	57.8	50	39.3	1	4	248	0.00	30.336 
14:10	57.8	57.8	57.8	48	38.2	1	3	248	0.00	30.336 
14:15	58.1	58.1	58.1	50	39.6	0	2	248	0.00	30.335 
14:20	58.3	58.3	58.3	48	38.7	0	2	248	0.00	30.335 
14:25	58.3	58.3	58.3	49	39.2	1	3	248	0.00	30.335 
14:30	57.8	57.8	57.8	48	38.2	1	4	270	0.00	30.333 
14:35	57.5	57.5	57.5	50	39.0	1	4	0	0.00	30.333 
14:40	57.8	57.8	57.8	49	38.8	1	3	0	0.00	30.333 
14:45	58.0	58.0	58.0	48	38.4	0	1	292	0.00	30.333 
14:50	58.1	58.1	58.1	48	38.5	0	2	292	0.00	30.333 
14:55	57.8	57.8	57.8	49	38.8	0	2	292	0.00	30.333 
15:00	57.5	57.5	57.5	47	37.4	1	2	292	0.00	30.320 
15:05	57.8	57.8	57.8	46	37.2	0	3	292	0.00	30.320 
15:10	58.3	58.3	58.3	48	38.7	1	4	292	0.00	30.320 
15:15	59.3	59.3	59.3	48	39.6	1	3	292	0.00	30.305 
15:20	60.1	60.1	60.1	46	39.2	0	3	292	0.00	30.305 
15:25	60.1	60.1	60.1	45	38.7	0	3	292	0.00	30.305 
15:30	60.5	60.5	60.5	42	37.3	2	4	270	0.00	30.302 
15:35	60.2	60.2	60.2	43	37.6	1	4	270	0.00	30.302 
15:40	59.6	59.6	59.6	43	37.1	1	4	248	0.00	30.302 
15:45	59.3	59.3	59.3	44	37.4	1	2	248	0.00	30.305 
15:50	59.6	59.6	59.6	46	38.8	0	2	248	0.00	30.305 
15:55	59.9	59.9	59.9	43	37.3	0	2	248	0.00	30.305 
16:00	60.5	60.5	60.5	43	37.9	0	3	248	0.00	30.299 
16:05	60.4	60.4	60.4	43	37.8	0	1	248	0.00	30.299 
16:10	60.2	60.2	60.2	44	38.2	1	5	270	0.00	30.299 
16:15	59.6	59.6	59.6	43	37.1	1	2	270	0.00	30.290 
16:20	59.5	59.5	59.5	45	38.1	1	3	315	0.00	30.290 
16:25	59.5	59.5	59.5	44	37.6	1	3	315	0.00	30.290 
16:30	59.6	59.6	59.6	44	37.7	1	3	315	0.00	30.287 
16:35	59.9	59.9	59.9	47	39.6	0	2	315	0.00	30.287 
16:40	60.2	60.2	60.2	43	37.6	1	3	315	0.00	30.287 
16:45	60.7	60.7	60.7	43	38.1	2	6	248	0.00	30.291 
16:50	60.4	60.4	60.4	43	37.8	1	6	315	0.00	30.291 
16:55	60.1	60.1	60.1	45	38.7	1	3	315	0.00	30.291 
17:00	59.9	59.9	59.9	44	37.9	1	2	315	0.00	30.292 
17:05	59.8	59.8	59.8	44	37.8	1	3	338	0.00	30.292 
17:10	59.6	59.6	59.6	43	37.1	2	4	248	0.00	30.292 
17:15	59.3	59.3	59.3	45	38.0	1	3	248	0.00	30.306 
17:20	58.9	58.9	58.9	45	37.6	1	5	248	0.00	30.306 
17:25	58.9	58.9	58.9	46	38.2	0	3	0	0.00	30.306 
17:30	58.7	58.7	58.7	45	37.4	1	3	338	0.00	30.306 
17:35	58.6	58.6	58.6	44	36.8	1	2	338	0.00	30.306 
17:40	58.6	58.6	58.6	46	37.9	0	2	338	0.00	30.306 
17:45	58.4	58.4	58.4	45	37.1	1	5	270	0.00	30.302 
17:50	58.3	58.3	58.3	45	37.1	0	2	270	0.00	30.302 
17:55	58.3	58.3	58.3	44	36.5	0	1	270	0.00	30.302 
18:00	58.3	58.3	58.3	44	36.5	1	3	270	0.00	30.305 
18:05	58.4	58.4	58.4	44	36.6	1	3	292	0.00	30.305 
18:10	58.3	58.3	58.3	43	35.9	1	3	292	0.00	30.305 
18:15	58.0	58.0	58.0	44	36.2	1	3	292	0.00	30.310 
18:20	57.8	57.8	57.8	45	36.6	0	3	292	0.00	30.310 
18:25	57.6	57.6	57.6	47	37.5	0	3	292	0.00	30.310 
18:30	57.6	57.6	57.6	46	37.0	0	2	292	0.00	30.310 
18:35	57.6	57.6	57.6	45	36.4	0	2	292	0.00	30.310 
18:40	57.5	57.5	57.5	45	36.3	0	3	292	0.00	30.310 
18:45	57.5	57.5	57.5	46	36.9	1	3	22	0.00	30.309 
18:50	57.3	57.3	57.3	46	36.7	0	2	270	0.00	30.309 
18:55	57.2	57.2	57.2	45	36.1	0	1	270	0.00	30.309 
19:00	57.0	57.0	57.0	45	35.9	0	2	270	0.00	30.305 
19:05	56.9	56.9	56.9	45	35.8	1	2	270	0.00	30.305 
19:10	56.9	56.9	56.9	46	36.3	0	1	270	0.00	30.305 
19:15	56.9	56.9	56.9	45	35.8	0	2	270	0.00	30.302 
19:20	56.7	56.7	56.7	46	36.2	0	1	270	0.00	30.302 
19:25	56.7	56.7	56.7	47	36.7	0	1	270	0.00	30.302 
19:30	56.5	56.5	56.5	47	36.5	0	2	270	0.00	30.296 
19:35	56.3	56.3	56.3	47	36.3	0	1	270	0.00	30.296 
19:40	56.2	56.2	56.2	46	35.7	1	3	22	0.00	30.296 
19:45	56.0	56.0	56.0	47	36.1	0	2	22	0.00	30.298 
19:50	55.9	55.9	55.9	47	36.0	0	3	0	0.00	30.298 
19:55	55.6	55.6	55.6	47	35.7	0	2	0	0.00	30.298 
20:00	55.4	55.4	55.4	47	35.5	0	1	0	0.00	30.297 
20:05	55.3	55.3	55.3	47	35.4	0	1	0	0.00	30.297 
20:10	55.0	55.0	55.0	47	35.1	0	1	0	0.00	30.297 
20:15	54.8	54.8	54.8	47	35.0	0	3	0	0.00	30.292 
20:20	54.7	54.7	54.7	47	34.9	0	2	270	0.00	30.292 
20:25	54.4	54.4	54.4	48	35.1	0	2	270	0.00	30.292 
20:30	54.2	54.2	54.2	48	34.9	0	2	270	0.00	30.292 
20:35	53.9	53.9	53.9	48	34.7	0	1	270	0.00	30.292 
20:40	53.8	53.8	53.8	49	35.1	0	1	270	0.00	30.292 
20:45	53.5	53.5	53.5	49	34.8	0	0	---	0.00	30.290 
20:50	53.2	53.2	53.2	50	35.0	0	0	---	0.00	30.290 
20:55	52.8	52.8	52.8	50	34.7	0	0	---	0.00	30.290 
21:00	52.5	52.5	52.5	51	34.9	0	0	---	0.00	30.291 
21:05	52.2	52.2	52.2	51	34.6	0	0	---	0.00	30.291 
21:10	51.9	51.9	51.9	51	34.3	0	0	---	0.00	30.291 
21:15	51.6	51.6	51.6	52	34.6	0	0	---	0.00	30.291 
21:20	51.3	51.3	51.3	53	34.8	0	0	---	0.00	30.291 
21:25	51.0	51.0	51.0	53	34.5	0	0	---	0.00	30.291 
21:30	50.7	50.7	50.7	54	34.7	0	0	---	0.00	30.291 
21:35	50.4	50.4	50.4	55	34.8	0	0	---	0.00	30.291 
21:40	50.1	50.1	50.1	55	34.6	0	0	---	0.00	30.291 
21:45	49.8	49.8	49.8	56	34.7	0	0	---	0.00	30.296 
21:50	49.4	49.4	49.4	57	34.8	0	0	---	0.00	30.296 
21:55	48.9	48.9	48.9	58	34.8	0	0	---	0.00	30.296 
22:00	48.6	48.6	48.6	59	34.9	0	0	---	0.00	30.305 
22:05	48.2	48.2	48.2	60	35.0	0	0	---	0.00	30.305 
22:10	47.9	47.9	47.9	61	35.1	0	0	---	0.00	30.305 
22:15	47.6	47.6	47.6	61	34.8	0	0	---	0.00	30.301 
22:20	47.1	47.1	47.1	62	34.8	0	0	---	0.00	30.301 
22:25	46.8	46.8	46.8	64	35.3	0	0	---	0.00	30.301 
22:30	46.4	46.4	46.4	65	35.3	0	0	---	0.00	30.305 
22:35	46.1	46.1	46.1	65	35.0	0	0	---	0.00	30.305 
22:40	45.8	45.8	45.8	66	35.1	0	0	---	0.00	30.305 
22:45	45.4	45.4	45.4	68	35.5	0	0	---	0.00	30.302 
22:50	45.1	45.1	45.1	69	35.5	0	0	---	0.00	30.302 
22:55	44.8	44.8	44.8	69	35.3	0	0	---	0.00	30.302 
23:00	44.5	44.5	44.5	70	35.3	0	0	---	0.00	30.303 
23:05	44.2	44.2	44.2	71	35.4	0	0	---	0.00	30.303 
23:10	43.8	43.8	43.8	72	35.4	0	0	---	0.00	30.303 
23:15	43.5	43.5	43.5	73	35.4	0	0	---	0.00	30.300 
23:20	43.3	43.3	43.3	73	35.2	0	0	---	0.00	30.300 
23:25	43.1	43.1	43.1	74	35.4	0	0	---	0.00	30.300 
23:30	42.8	42.8	42.8	74	35.1	0	0	---	0.00	30.300 
23:35	42.6	42.6	42.6	75	35.2	0	0	---	0.00	30.300 
23:40	42.3	42.3	42.3	76	35.3	0	0	---	0.00	30.300 
23:45	42.2	42.2	42.2	76	35.2	0	0	---	0.00	30.304 
23:50	41.9	41.9	41.9	76	34.9	0	0	---	0.00	30.304 
23:55	41.8	41.8	41.8	77	35.1	0	0	---	0.00	30.304 

CoCoRaHS
IN-AL-39
A2 Web Hosting
Creative Commons License
GoDaddy
search engine by freefind advanced

loaded 2018-11-15 18:21:21 • last modified 2010-11-18 10:43:29
Privacy PolicyDisclaimer
• wx.awcolley.com is powered by PmWiki v.2002016 •
• all content (unless otherwise noted) © 2018 A W Colley